KDUA

Durant Regional - Eaker Field Airport

Durant, Oklahoma, USA
METAR KDUA 200055Z AUTO 17008KT 10SM OVC023 10/03 A3003 RMK AO2
Observed Flight Rules
Jan-20 @ 00:55 UTC (27 minutes ago) Marginal Visual Flight Rules
Wind Visibility Clouds
170° at 8 knots 10 miles
  • Overcast at 2,300' AGL
Temperatures Readings
Current 10°C / 50°F
Dewpoint 3°C / 37°F
Humidity 62%
Altimeter 30.03" Hg
Pressure 1017 hPa
Elevation 213
METAR KDUA 200055Z AUTO 17008KT 10SM OVC023 10/03 A3003 RMK AO2
Observed Flight Rules
Jan-20 @ 00:55 UTC
(27 minutes ago)
MVFR
Wind Visibility
170° at 8 knots 10 miles
Clouds
  • Overcast at 2,300' AGL
Temperature Dewpoint
10°C / 50°F 3°C / 37°F
Humidity Altimeter Pressure
62% 30.03" Hg 1017 hPa